Tustin, Wisconsin
Current Conditions -  °F | °C
As of 10:15 PM on Sunday 23 Nov 2014 (Local Time) from KPCZ Reporting Station
Moderate Rain Moderate Rain  
Wind Chill: 46°   Ceiling: 200
Heat Index: 46°   Visibility: 0.5mi
Dew Point: 45°   Wind: 3mph
Humidity: 97%   Direction: 10°N
Pressure: 29.21"   Gusts: NA
Location:  44.2033°N, 88.9001°W
Report Text: KPCZ 240415Z AUTO 01003KT 1/2SM RA OVC002 08/07 A2921 RMK AO2 P0001 T00750070
Loading
Personal Weather Stations






























Interactive Weather Map New forecast layout! Learn more

10-Day Weather Forecast

Advertisements
Track Severe Weather on mobile